KOXD/OXD METAR and TAF weather

Enter ICAO airport designator
Station Type Date Time Source
KOXD METAR 2022/01/18 07:35 UTC NOAA

KOXD 180735Z AUTO 26005KT 10SM OVC020 M03/M08 A3001 RMK AO2 T10261081


Station Type Date Time Source
KOXD Decoded METAR 2022/01/18 07:35 UTC NOAA

Station name not available
Jan 18, 2022 - 02:35 AM EST / 2022.01.18 0735 UTC
Wind: from the W (260 degrees) at 6 MPH (5 KT):0
Visibility: 10 mile(s):0
Sky conditions: overcast
Temperature: 27.3 F (-2.6 C)
Windchill: 21 F (-6 C):1
Dew Point: 17.4 F (-8.1 C)
Relative Humidity: 65%
Pressure (altimeter): 30.01 in. Hg (1016 hPa)
ob: KOXD 180735Z AUTO 26005KT 10SM OVC020 M03/M08 A3001 RMK AO2 T10261081
cycle: 7

Station Type Date Time Source
KOXD TAF UTC NOAA

Error!

Example: see airport list